sensor_id;sensor_type;location;lat;lon;timestamp;pressure;altitude;pressure_sealevel;temperature;humidity
48652;BME280;34442;52.362;-1.302;2023-03-22T00:01:06;98670.22;;;11.32;100.00
48652;BME280;34442;52.362;-1.302;2023-03-22T00:03:33;98660.09;;;11.17;100.00
48652;BME280;34442;52.362;-1.302;2023-03-22T00:05:58;98658.38;;;11.33;100.00
48652;BME280;34442;52.362;-1.302;2023-03-22T00:08:23;98651.56;;;11.26;100.00
48652;BME280;34442;52.362;-1.302;2023-03-22T00:10:49;98645.69;;;11.29;100.00
48652;BME280;34442;52.362;-1.302;2023-03-22T00:13:14;98649.44;;;11.28;100.00
48652;BME280;34442;52.362;-1.302;2023-03-22T00:15:41;98633.34;;;11.33;100.00
48652;BME280;34442;52.362;-1.302;2023-03-22T00:18:08;98632.75;;;11.26;100.00
48652;BME280;34442;52.362;-1.302;2023-03-22T00:20:36;98623.38;;;11.28;100.00
48652;BME280;34442;52.362;-1.302;2023-03-22T00:23:03;98624.31;;;11.44;100.00
48652;BME280;34442;52.362;-1.302;2023-03-22T00:25:28;98618.94;;;11.44;100.00
48652;BME280;34442;52.362;-1.302;2023-03-22T00:27:53;98603.03;;;11.75;100.00
48652;BME280;34442;52.362;-1.302;2023-03-22T00:30:21;98604.31;;;11.99;100.00
48652;BME280;34442;52.362;-1.302;2023-03-22T00:32:46;98599.25;;;12.13;100.00
48652;BME280;34442;52.362;-1.302;2023-03-22T00:35:12;98588.00;;;11.47;100.00
48652;BME280;34442;52.362;-1.302;2023-03-22T00:37:37;98582.31;;;11.43;100.00
48652;BME280;34442;52.362;-1.302;2023-03-22T00:40:05;98572.09;;;11.40;100.00
48652;BME280;34442;52.362;-1.302;2023-03-22T00:42:37;98572.31;;;11.38;100.00
48652;BME280;34442;52.362;-1.302;2023-03-22T00:45:03;98562.91;;;11.36;100.00
48652;BME280;34442;52.362;-1.302;2023-03-22T00:47:30;98563.72;;;11.36;100.00
48652;BME280;34442;52.362;-1.302;2023-03-22T00:49:55;98557.75;;;11.34;100.00
48652;BME280;34442;52.362;-1.302;2023-03-22T00:52:21;98550.59;;;11.45;100.00
48652;BME280;34442;52.362;-1.302;2023-03-22T00:54:46;98563.19;;;11.39;100.00
48652;BME280;34442;52.362;-1.302;2023-03-22T00:57:12;98568.63;;;11.45;100.00
48652;BME280;34442;52.362;-1.302;2023-03-22T00:59:38;98559.00;;;11.54;100.00
48652;BME280;34442;52.362;-1.302;2023-03-22T01:02:04;98556.81;;;11.51;100.00
48652;BME280;34442;52.362;-1.302;2023-03-22T01:04:29;98544.75;;;11.53;100.00
48652;BME280;34442;52.362;-1.302;2023-03-22T01:06:55;98540.69;;;11.56;100.00
48652;BME280;34442;52.362;-1.302;2023-03-22T01:09:26;98522.44;;;11.58;100.00
48652;BME280;34442;52.362;-1.302;2023-03-22T01:11:54;98521.81;;;11.46;100.00
48652;BME280;34442;52.362;-1.302;2023-03-22T01:14:20;98507.84;;;11.49;100.00
48652;BME280;34442;52.362;-1.302;2023-03-22T01:16:46;98501.91;;;11.47;100.00
48652;BME280;34442;52.362;-1.302;2023-03-22T01:19:11;98490.66;;;11.55;100.00
48652;BME280;34442;52.362;-1.302;2023-03-22T01:21:36;98490.66;;;11.60;100.00
48652;BME280;34442;52.362;-1.302;2023-03-22T01:24:02;98491.22;;;11.57;100.00
48652;BME280;34442;52.362;-1.302;2023-03-22T01:26:27;98476.38;;;11.49;100.00
48652;BME280;34442;52.362;-1.302;2023-03-22T01:28:52;98481.44;;;11.46;100.00
48652;BME280;34442;52.362;-1.302;2023-03-22T01:31:17;98474.19;;;11.51;100.00
48652;BME280;34442;52.362;-1.302;2023-03-22T01:33:43;98465.88;;;11.53;100.00
48652;BME280;34442;52.362;-1.302;2023-03-22T01:36:08;98448.06;;;11.47;100.00
48652;BME280;34442;52.362;-1.302;2023-03-22T01:38:33;98451.25;;;11.38;100.00
48652;BME280;34442;52.362;-1.302;2023-03-22T01:40:59;98447.53;;;11.45;100.00
48652;BME280;34442;52.362;-1.302;2023-03-22T01:43:24;98448.66;;;11.49;100.00
48652;BME280;34442;52.362;-1.302;2023-03-22T01:45:50;98441.13;;;12.08;100.00
48652;BME280;34442;52.362;-1.302;2023-03-22T01:53:27;98421.19;;;11.52;100.00
48652;BME280;34442;52.362;-1.302;2023-03-22T01:55:54;98421.16;;;11.47;100.00
48652;BME280;34442;52.362;-1.302;2023-03-22T01:58:20;98399.66;;;11.47;100.00
48652;BME280;34442;52.362;-1.302;2023-03-22T02:00:46;98404.81;;;11.53;100.00
48652;BME280;34442;52.362;-1.302;2023-03-22T02:03:12;98391.06;;;11.50;100.00
48652;BME280;34442;52.362;-1.302;2023-03-22T02:05:39;98398.56;;;11.48;100.00
48652;BME280;34442;52.362;-1.302;2023-03-22T02:08:04;98376.09;;;11.74;100.00
48652;BME280;34442;52.362;-1.302;2023-03-22T02:10:30;98389.84;;;11.78;100.00
48652;BME280;34442;52.362;-1.302;2023-03-22T02:15:43;98390.19;;;11.39;100.00
48652;BME280;34442;52.362;-1.302;2023-03-22T02:18:25;98380.28;;;11.45;100.00
48652;BME280;34442;52.362;-1.302;2023-03-22T02:23:52;98377.31;;;11.46;100.00
48652;BME280;34442;52.362;-1.302;2023-03-22T02:26:32;98380.81;;;11.47;100.00
48652;BME280;34442;52.362;-1.302;2023-03-22T02:34:31;98362.50;;;12.06;100.00
48652;BME280;34442;52.362;-1.302;2023-03-22T02:42:36;98359.53;;;11.40;100.00
48652;BME280;34442;52.362;-1.302;2023-03-22T02:45:03;98363.53;;;11.32;100.00
48652;BME280;34442;52.362;-1.302;2023-03-22T02:50:29;98357.28;;;11.22;100.00
48652;BME280;34442;52.362;-1.302;2023-03-22T02:53:04;98335.75;;;11.22;100.00
48652;BME280;34442;52.362;-1.302;2023-03-22T02:55:33;98337.66;;;11.26;100.00
48652;BME280;34442;52.362;-1.302;2023-03-22T02:58:24;98338.19;;;11.23;100.00
48652;BME280;34442;52.362;-1.302;2023-03-22T03:00:48;98341.38;;;11.15;100.00
48652;BME280;34442;52.362;-1.302;2023-03-22T03:03:15;98329.81;;;11.14;100.00
48652;BME280;34442;52.362;-1.302;2023-03-22T03:05:47;98331.69;;;11.14;100.00
48652;BME280;34442;52.362;-1.302;2023-03-22T03:08:15;98330.06;;;11.13;100.00
48652;BME280;34442;52.362;-1.302;2023-03-22T03:10:41;98340.31;;;11.16;100.00
48652;BME280;34442;52.362;-1.302;2023-03-22T03:13:11;98325.22;;;11.15;100.00
48652;BME280;34442;52.362;-1.302;2023-03-22T03:15:37;98336.56;;;11.17;100.00
48652;BME280;34442;52.362;-1.302;2023-03-22T03:28:37;98328.22;;;11.18;100.00
48652;BME280;34442;52.362;-1.302;2023-03-22T03:31:06;98317.22;;;11.20;100.00
48652;BME280;34442;52.362;-1.302;2023-03-22T03:33:33;98314.47;;;11.78;100.00
48652;BME280;34442;52.362;-1.302;2023-03-22T03:36:00;98302.41;;;11.96;100.00
48652;BME280;34442;52.362;-1.302;2023-03-22T03:38:28;98314.13;;;11.59;100.00
48652;BME280;34442;52.362;-1.302;2023-03-22T03:40:56;98308.09;;;11.26;100.00
48652;BME280;34442;52.362;-1.302;2023-03-22T03:43:23;98318.25;;;11.19;100.00
48652;BME280;34442;52.362;-1.302;2023-03-22T03:45:50;98307.47;;;11.14;100.00
48652;BME280;34442;52.362;-1.302;2023-03-22T03:48:20;98301.88;;;11.15;100.00
48652;BME280;34442;52.362;-1.302;2023-03-22T03:50:47;98299.69;;;11.12;100.00
48652;BME280;34442;52.362;-1.302;2023-03-22T03:53:15;98288.56;;;11.56;100.00
48652;BME280;34442;52.362;-1.302;2023-03-22T03:55:40;98294.03;;;11.82;100.00
48652;BME280;34442;52.362;-1.302;2023-03-22T03:58:05;98282.47;;;11.08;100.00
48652;BME280;34442;52.362;-1.302;2023-03-22T04:00:33;98286.75;;;11.09;100.00
48652;BME280;34442;52.362;-1.302;2023-03-22T04:02:58;98283.56;;;11.12;100.00
48652;BME280;34442;52.362;-1.302;2023-03-22T04:05:23;98268.44;;;11.06;100.00
48652;BME280;34442;52.362;-1.302;2023-03-22T04:07:48;98270.09;;;11.07;100.00
48652;BME280;34442;52.362;-1.302;2023-03-22T04:10:14;98271.13;;;11.79;100.00
48652;BME280;34442;52.362;-1.302;2023-03-22T04:12:39;98239.25;;;11.35;100.00
48652;BME280;34442;52.362;-1.302;2023-03-22T04:15:05;98223.09;;;11.35;100.00
48652;BME280;34442;52.362;-1.302;2023-03-22T04:17:30;98261.47;;;11.05;100.00
48652;BME280;34442;52.362;-1.302;2023-03-22T04:19:56;98282.16;;;11.05;100.00
48652;BME280;34442;52.362;-1.302;2023-03-22T04:22:21;98280.56;;;11.04;100.00
48652;BME280;34442;52.362;-1.302;2023-03-22T04:24:47;98276.47;;;10.96;100.00
48652;BME280;34442;52.362;-1.302;2023-03-22T04:27:14;98280.31;;;11.10;100.00
48652;BME280;34442;52.362;-1.302;2023-03-22T04:29:39;98273.88;;;11.11;100.00
48652;BME280;34442;52.362;-1.302;2023-03-22T04:32:05;98275.72;;;11.06;100.00
48652;BME280;34442;52.362;-1.302;2023-03-22T04:34:30;98278.41;;;11.06;100.00
48652;BME280;34442;52.362;-1.302;2023-03-22T04:36:56;98273.31;;;11.14;100.00
48652;BME280;34442;52.362;-1.302;2023-03-22T04:39:21;98270.91;;;11.13;100.00
48652;BME280;34442;52.362;-1.302;2023-03-22T04:41:47;98274.03;;;11.52;100.00
48652;BME280;34442;52.362;-1.302;2023-03-22T04:44:12;98276.59;;;11.27;100.00
48652;BME280;34442;52.362;-1.302;2023-03-22T04:46:37;98281.69;;;11.23;100.00
48652;BME280;34442;52.362;-1.302;2023-03-22T04:49:03;98287.06;;;11.23;100.00
48652;BME280;34442;52.362;-1.302;2023-03-22T04:51:28;98292.78;;;11.32;100.00
48652;BME280;34442;52.362;-1.302;2023-03-22T04:53:54;98290.63;;;11.29;100.00
48652;BME280;34442;52.362;-1.302;2023-03-22T04:56:20;98291.38;;;11.19;100.00
48652;BME280;34442;52.362;-1.302;2023-03-22T04:58:45;98287.06;;;11.23;100.00
48652;BME280;34442;52.362;-1.302;2023-03-22T05:01:12;98293.53;;;11.22;100.00
48652;BME280;34442;52.362;-1.302;2023-03-22T05:03:37;98277.38;;;11.12;100.00
48652;BME280;34442;52.362;-1.302;2023-03-22T05:06:04;98290.13;;;11.42;100.00
48652;BME280;34442;52.362;-1.302;2023-03-22T05:08:30;98286.56;;;11.31;100.00
48652;BME280;34442;52.362;-1.302;2023-03-22T05:10:57;98284.44;;;11.33;100.00
48652;BME280;34442;52.362;-1.302;2023-03-22T05:13:23;98274.19;;;11.30;100.00
48652;BME280;34442;52.362;-1.302;2023-03-22T05:15:49;98271.22;;;11.27;100.00
48652;BME280;34442;52.362;-1.302;2023-03-22T05:18:15;98274.97;;;11.21;100.00
48652;BME280;34442;52.362;-1.302;2023-03-22T05:20:41;98279.28;;;11.27;100.00
48652;BME280;34442;52.362;-1.302;2023-03-22T05:23:06;98291.16;;;11.31;100.00
48652;BME280;34442;52.362;-1.302;2023-03-22T05:25:33;98304.88;;;11.34;100.00
48652;BME280;34442;52.362;-1.302;2023-03-22T05:27:59;98305.69;;;11.35;100.00
48652;BME280;34442;52.362;-1.302;2023-03-22T05:30:26;98313.75;;;11.35;100.00
48652;BME280;34442;52.362;-1.302;2023-03-22T05:32:55;98322.41;;;11.37;100.00
48652;BME280;34442;52.362;-1.302;2023-03-22T05:35:20;98317.00;;;11.37;100.00
48652;BME280;34442;52.362;-1.302;2023-03-22T05:37:46;98326.44;;;11.39;100.00
48652;BME280;34442;52.362;-1.302;2023-03-22T05:40:11;98325.09;;;11.37;100.00
48652;BME280;34442;52.362;-1.302;2023-03-22T05:42:36;98329.91;;;11.35;100.00
48652;BME280;34442;52.362;-1.302;2023-03-22T05:45:02;98335.34;;;11.45;100.00
48652;BME280;34442;52.362;-1.302;2023-03-22T05:47:27;98322.63;;;11.35;100.00
48652;BME280;34442;52.362;-1.302;2023-03-22T05:49:52;98327.78;;;11.42;100.00
48652;BME280;34442;52.362;-1.302;2023-03-22T05:52:17;98328.63;;;11.48;100.00
48652;BME280;34442;52.362;-1.302;2023-03-22T05:54:43;98329.16;;;11.45;100.00
48652;BME280;34442;52.362;-1.302;2023-03-22T05:57:08;98328.34;;;11.44;100.00
48652;BME280;34442;52.362;-1.302;2023-03-22T05:59:33;98334.81;;;11.48;100.00
48652;BME280;34442;52.362;-1.302;2023-03-22T06:01:58;98339.94;;;11.55;100.00
48652;BME280;34442;52.362;-1.302;2023-03-22T06:04:24;98342.41;;;11.56;100.00
48652;BME280;34442;52.362;-1.302;2023-03-22T06:06:49;98356.63;;;11.52;100.00
48652;BME280;34442;52.362;-1.302;2023-03-22T06:09:15;98356.63;;;11.52;100.00
48652;BME280;34442;52.362;-1.302;2023-03-22T06:11:40;98350.72;;;11.60;100.00
48652;BME280;34442;52.362;-1.302;2023-03-22T06:14:05;98362.56;;;11.59;100.00
48652;BME280;34442;52.362;-1.302;2023-03-22T06:16:31;98365.25;;;11.54;100.00
48652;BME280;34442;52.362;-1.302;2023-03-22T06:18:56;98355.56;;;11.58;100.00
48652;BME280;34442;52.362;-1.302;2023-03-22T06:21:22;98364.47;;;11.58;100.00
48652;BME280;34442;52.362;-1.302;2023-03-22T06:23:47;98364.97;;;11.55;100.00
48652;BME280;34442;52.362;-1.302;2023-03-22T06:26:12;98359.06;;;11.53;100.00
48652;BME280;34442;52.362;-1.302;2023-03-22T06:28:38;98360.66;;;11.54;100.00
48652;BME280;34442;52.362;-1.302;2023-03-22T06:31:07;98351.78;;;11.54;100.00
48652;BME280;34442;52.362;-1.302;2023-03-22T06:33:33;98362.84;;;11.52;100.00
48652;BME280;34442;52.362;-1.302;2023-03-22T06:35:58;98374.41;;;11.53;100.00
48652;BME280;34442;52.362;-1.302;2023-03-22T06:38:25;98380.28;;;11.50;100.00
48652;BME280;34442;52.362;-1.302;2023-03-22T06:40:51;98378.13;;;11.52;100.00
48652;BME280;34442;52.362;-1.302;2023-03-22T06:43:16;98398.88;;;11.51;100.00
48652;BME280;34442;52.362;-1.302;2023-03-22T06:45:41;98396.72;;;11.48;100.00
48652;BME280;34442;52.362;-1.302;2023-03-22T06:48:07;98403.16;;;11.47;100.00
48652;BME280;34442;52.362;-1.302;2023-03-22T06:50:32;98402.13;;;11.53;100.00
48652;BME280;34442;52.362;-1.302;2023-03-22T06:53:01;98404.00;;;11.53;100.00
48652;BME280;34442;52.362;-1.302;2023-03-22T06:55:27;98405.34;;;11.55;100.00
48652;BME280;34442;52.362;-1.302;2023-03-22T06:57:52;98413.69;;;11.54;100.00
48652;BME280;34442;52.362;-1.302;2023-03-22T07:00:18;98424.16;;;11.50;100.00
48652;BME280;34442;52.362;-1.302;2023-03-22T07:02:43;98424.97;;;11.56;100.00
48652;BME280;34442;52.362;-1.302;2023-03-22T07:05:08;98423.38;;;11.55;100.00
48652;BME280;34442;52.362;-1.302;2023-03-22T07:07:34;98430.66;;;11.59;100.00
48652;BME280;34442;52.362;-1.302;2023-03-22T07:09:59;98431.72;;;11.53;100.00
48652;BME280;34442;52.362;-1.302;2023-03-22T07:12:25;98448.34;;;11.45;100.00
48652;BME280;34442;52.362;-1.302;2023-03-22T07:14:50;98444.38;;;11.53;100.00
48652;BME280;34442;52.362;-1.302;2023-03-22T07:17:15;98457.25;;;11.51;100.00
48652;BME280;34442;52.362;-1.302;2023-03-22T07:19:40;98463.72;;;11.50;100.00
48652;BME280;34442;52.362;-1.302;2023-03-22T07:22:06;98458.06;;;11.51;100.00
48652;BME280;34442;52.362;-1.302;2023-03-22T07:24:32;98458.88;;;11.52;100.00
48652;BME280;34442;52.362;-1.302;2023-03-22T07:26:57;98470.78;;;11.61;100.00
48652;BME280;34442;52.362;-1.302;2023-03-22T07:29:22;98475.63;;;11.64;100.00
48652;BME280;34442;52.362;-1.302;2023-03-22T07:31:47;98470.59;;;11.73;100.00
48652;BME280;34442;52.362;-1.302;2023-03-22T07:34:13;98474.63;;;11.75;100.00
48652;BME280;34442;52.362;-1.302;2023-03-22T07:36:39;98477.13;;;11.87;100.00
48652;BME280;34442;52.362;-1.302;2023-03-22T07:39:04;98494.28;;;11.81;100.00
48652;BME280;34442;52.362;-1.302;2023-03-22T07:41:30;98485.41;;;11.80;100.00
48652;BME280;34442;52.362;-1.302;2023-03-22T07:43:55;98480.13;;;11.90;100.00
48652;BME280;34442;52.362;-1.302;2023-03-22T07:46:20;98483.09;;;11.94;100.00
48652;BME280;34442;52.362;-1.302;2023-03-22T07:48:46;98488.44;;;11.89;100.00
48652;BME280;34442;52.362;-1.302;2023-03-22T07:51:11;98486.59;;;11.95;100.00
48652;BME280;34442;52.362;-1.302;2023-03-22T07:53:36;98489.28;;;11.89;100.00
48652;BME280;34442;52.362;-1.302;2023-03-22T07:56:02;98485.50;;;11.90;100.00
48652;BME280;34442;52.362;-1.302;2023-03-22T07:58:28;98490.63;;;11.92;100.00
48652;BME280;34442;52.362;-1.302;2023-03-22T08:00:54;98488.72;;;11.92;100.00
48652;BME280;34442;52.362;-1.302;2023-03-22T08:03:19;98488.09;;;11.80;100.00
48652;BME280;34442;52.362;-1.302;2023-03-22T08:05:46;98488.09;;;11.80;100.00
48652;BME280;34442;52.362;-1.302;2023-03-22T08:08:12;98482.25;;;11.88;100.00
48652;BME280;34442;52.362;-1.302;2023-03-22T08:10:37;98486.84;;;11.93;100.00
48652;BME280;34442;52.362;-1.302;2023-03-22T08:13:03;98486.84;;;11.93;100.00
48652;BME280;34442;52.362;-1.302;2023-03-22T08:15:28;98494.66;;;11.89;100.00
48652;BME280;34442;52.362;-1.302;2023-03-22T08:17:54;98501.25;;;11.77;100.00
48652;BME280;34442;52.362;-1.302;2023-03-22T08:20:22;98502.81;;;11.62;100.00
48652;BME280;34442;52.362;-1.302;2023-03-22T08:22:50;98497.41;;;11.57;100.00
48652;BME280;34442;52.362;-1.302;2023-03-22T08:25:15;98500.81;;;11.48;100.00
48652;BME280;34442;52.362;-1.302;2023-03-22T08:27:41;98498.09;;;11.42;100.00
48652;BME280;34442;52.362;-1.302;2023-03-22T08:30:06;98494.53;;;11.32;100.00
48652;BME280;34442;52.362;-1.302;2023-03-22T08:32:32;98491.25;;;11.25;100.00
48652;BME280;34442;52.362;-1.302;2023-03-22T08:34:57;98486.69;;;11.25;100.00
48652;BME280;34442;52.362;-1.302;2023-03-22T08:37:22;98490.97;;;11.21;100.00
48652;BME280;34442;52.362;-1.302;2023-03-22T08:39:48;98491.28;;;11.30;100.00
48652;BME280;34442;52.362;-1.302;2023-03-22T08:42:13;98495.88;;;11.34;100.00
48652;BME280;34442;52.362;-1.302;2023-03-22T08:44:38;98504.25;;;11.38;100.00
48652;BME280;34442;52.362;-1.302;2023-03-22T08:47:03;98500.72;;;11.32;100.00
48652;BME280;34442;52.362;-1.302;2023-03-22T08:49:29;98495.91;;;11.39;100.00
48652;BME280;34442;52.362;-1.302;2023-03-22T08:51:55;98502.88;;;11.35;100.00
48652;BME280;34442;52.362;-1.302;2023-03-22T08:54:21;98502.69;;;11.47;100.00
48652;BME280;34442;52.362;-1.302;2023-03-22T08:56:47;98499.81;;;11.59;100.00
48652;BME280;34442;52.362;-1.302;2023-03-22T08:59:12;98505.00;;;11.71;100.00
48652;BME280;34442;52.362;-1.302;2023-03-22T09:01:37;98504.50;;;11.74;100.00
48652;BME280;34442;52.362;-1.302;2023-03-22T09:04:03;98513.69;;;11.78;100.00
48652;BME280;34442;52.362;-1.302;2023-03-22T09:06:28;98509.97;;;11.89;100.00
48652;BME280;34442;52.362;-1.302;2023-03-22T09:08:54;98505.97;;;11.97;100.00
48652;BME280;34442;52.362;-1.302;2023-03-22T09:11:20;98503.66;;;12.10;100.00
48652;BME280;34442;52.362;-1.302;2023-03-22T09:13:49;98497.75;;;12.24;100.00
48652;BME280;34442;52.362;-1.302;2023-03-22T09:16:14;98497.53;;;12.35;100.00
48652;BME280;34442;52.362;-1.302;2023-03-22T09:18:41;98503.22;;;12.44;100.00
48652;BME280;34442;52.362;-1.302;2023-03-22T09:21:06;98508.41;;;12.66;100.00
48652;BME280;34442;52.362;-1.302;2023-03-22T09:23:33;98503.00;;;12.61;100.00
48652;BME280;34442;52.362;-1.302;2023-03-22T09:25:59;98501.16;;;12.72;100.00
48652;BME280;34442;52.362;-1.302;2023-03-22T09:28:26;98503.56;;;12.68;100.00
48652;BME280;34442;52.362;-1.302;2023-03-22T09:30:51;98514.63;;;12.72;100.00
48652;BME280;34442;52.362;-1.302;2023-03-22T09:33:16;98508.69;;;12.75;100.00
48652;BME280;34442;52.362;-1.302;2023-03-22T09:35:41;98505.97;;;12.64;100.00
48652;BME280;34442;52.362;-1.302;2023-03-22T09:38:07;98504.31;;;12.53;100.00
48652;BME280;34442;52.362;-1.302;2023-03-22T09:40:32;98499.75;;;12.59;100.00
48652;BME280;34442;52.362;-1.302;2023-03-22T09:43:05;98504.59;;;12.62;100.00
48652;BME280;34442;52.362;-1.302;2023-03-22T09:45:42;98508.66;;;12.59;100.00
48652;BME280;34442;52.362;-1.302;2023-03-22T09:48:19;98495.72;;;12.56;100.00
48652;BME280;34442;52.362;-1.302;2023-03-22T09:50:47;98491.91;;;12.47;100.00
48652;BME280;34442;52.362;-1.302;2023-03-22T09:53:13;98505.66;;;12.46;100.00
48652;BME280;34442;52.362;-1.302;2023-03-22T09:58:12;98503.56;;;12.68;100.00
48652;BME280;34442;52.362;-1.302;2023-03-22T10:01:27;98496.56;;;12.77;100.00
48652;BME280;34442;52.362;-1.302;2023-03-22T10:06:04;98493.06;;;13.07;100.00
48652;BME280;34442;52.362;-1.302;2023-03-22T10:11:41;98498.75;;;13.01;100.00
48652;BME280;34442;52.362;-1.302;2023-03-22T10:14:23;98497.94;;;13.00;100.00
48652;BME280;34442;52.362;-1.302;2023-03-22T10:16:51;98485.00;;;13.18;100.00
48652;BME280;34442;52.362;-1.302;2023-03-22T10:19:19;98490.41;;;13.23;100.00
48652;BME280;34442;52.362;-1.302;2023-03-22T10:21:47;98502.00;;;13.38;100.00
48652;BME280;34442;52.362;-1.302;2023-03-22T10:24:19;98518.75;;;13.51;100.00
48652;BME280;34442;52.362;-1.302;2023-03-22T10:26:48;98512.00;;;13.43;100.00
48652;BME280;34442;52.362;-1.302;2023-03-22T10:31:45;98502.28;;;13.32;100.00
48652;BME280;34442;52.362;-1.302;2023-03-22T10:34:14;98502.28;;;13.32;100.00
48652;BME280;34442;52.362;-1.302;2023-03-22T10:36:42;98508.50;;;13.37;100.00
48652;BME280;34442;52.362;-1.302;2023-03-22T10:41:40;98508.94;;;13.90;100.00
48652;BME280;34442;52.362;-1.302;2023-03-22T10:44:07;98525.41;;;13.94;100.00
48652;BME280;34442;52.362;-1.302;2023-03-22T10:46:34;98501.09;;;13.99;100.00
48652;BME280;34442;52.362;-1.302;2023-03-22T10:49:01;98511.81;;;14.14;99.29
48652;BME280;34442;52.362;-1.302;2023-03-22T10:53:53;98511.34;;;13.97;100.00
48652;BME280;34442;52.362;-1.302;2023-03-22T10:56:19;98516.25;;;13.80;100.00
48652;BME280;34442;52.362;-1.302;2023-03-22T10:58:45;98518.41;;;13.83;100.00
48652;BME280;34442;52.362;-1.302;2023-03-22T11:01:15;98512.38;;;14.17;100.00
48652;BME280;34442;52.362;-1.302;2023-03-22T11:03:41;98513.34;;;14.41;98.91
48652;BME280;34442;52.362;-1.302;2023-03-22T11:06:11;98513.56;;;14.55;98.17
48652;BME280;34442;52.362;-1.302;2023-03-22T11:08:41;98519.81;;;14.40;97.19
48652;BME280;34442;52.362;-1.302;2023-03-22T11:11:15;98505.75;;;14.43;96.08
48652;BME280;34442;52.362;-1.302;2023-03-22T11:13:40;98500.09;;;14.50;95.41
48652;BME280;34442;52.362;-1.302;2023-03-22T11:16:06;98510.28;;;14.63;92.22
48652;BME280;34442;52.362;-1.302;2023-03-22T11:18:32;98502.22;;;14.58;91.88
48652;BME280;34442;52.362;-1.302;2023-03-22T11:21:11;98517.47;;;14.23;92.10
48652;BME280;34442;52.362;-1.302;2023-03-22T11:23:37;98507.28;;;14.64;89.25
48652;BME280;34442;52.362;-1.302;2023-03-22T11:26:09;98506.06;;;14.36;95.40
48652;BME280;34442;52.362;-1.302;2023-03-22T11:28:36;98503.47;;;14.16;94.89
48652;BME280;34442;52.362;-1.302;2023-03-22T11:31:11;98517.22;;;14.14;95.88
48652;BME280;34442;52.362;-1.302;2023-03-22T11:33:37;98502.97;;;14.04;94.14
48652;BME280;34442;52.362;-1.302;2023-03-22T11:36:16;98503.19;;;14.18;93.02
48652;BME280;34442;52.362;-1.302;2023-03-22T11:38:42;98491.19;;;14.39;93.83
48652;BME280;34442;52.362;-1.302;2023-03-22T11:41:10;98501.06;;;14.64;93.45
48652;BME280;34442;52.362;-1.302;2023-03-22T11:43:38;98500.09;;;14.39;89.80
48652;BME280;34442;52.362;-1.302;2023-03-22T11:46:05;98499.50;;;14.48;91.00
48652;BME280;34442;52.362;-1.302;2023-03-22T11:48:31;98497.09;;;14.51;92.23
48652;BME280;34442;52.362;-1.302;2023-03-22T11:51:08;98493.06;;;14.49;91.93
48652;BME280;34442;52.362;-1.302;2023-03-22T11:53:36;98494.09;;;14.58;91.19
48652;BME280;34442;52.362;-1.302;2023-03-22T11:56:02;98487.28;;;14.66;90.95
48652;BME280;34442;52.362;-1.302;2023-03-22T12:01:05;98482.13;;;15.37;85.29
48652;BME280;34442;52.362;-1.302;2023-03-22T12:03:32;98487.56;;;15.03;84.98
48652;BME280;34442;52.362;-1.302;2023-03-22T12:06:03;98482.06;;;15.13;85.46
48652;BME280;34442;52.362;-1.302;2023-03-22T12:11:02;98486.13;;;14.77;74.24
48652;BME280;34442;52.362;-1.302;2023-03-22T12:13:52;98490.72;;;14.81;76.14
48652;BME280;34442;52.362;-1.302;2023-03-22T12:16:16;98485.34;;;15.10;77.63
48652;BME280;34442;52.362;-1.302;2023-03-22T12:18:46;98489.03;;;14.91;72.73
48652;BME280;34442;52.362;-1.302;2023-03-22T12:21:12;98480.22;;;15.09;74.68
48652;BME280;34442;52.362;-1.302;2023-03-22T12:23:38;98470.69;;;15.17;76.25
48652;BME280;34442;52.362;-1.302;2023-03-22T12:26:04;98467.34;;;14.96;72.65
48652;BME280;34442;52.362;-1.302;2023-03-22T12:28:36;98467.56;;;14.99;74.57
48652;BME280;34442;52.362;-1.302;2023-03-22T12:31:04;98459.78;;;14.93;72.45
48652;BME280;34442;52.362;-1.302;2023-03-22T12:33:34;98453.81;;;14.96;68.08
48652;BME280;34442;52.362;-1.302;2023-03-22T12:36:03;98462.47;;;14.98;72.07
48652;BME280;34442;52.362;-1.302;2023-03-22T12:38:39;98454.34;;;14.93;65.87
48652;BME280;34442;52.362;-1.302;2023-03-22T12:41:06;98461.50;;;14.78;67.57
48652;BME280;34442;52.362;-1.302;2023-03-22T12:43:40;98453.28;;;14.94;67.34
48652;BME280;34442;52.362;-1.302;2023-03-22T12:46:08;98444.41;;;15.17;67.70
48652;BME280;34442;52.362;-1.302;2023-03-22T12:48:38;98453.50;;;14.97;66.08
48652;BME280;34442;52.362;-1.302;2023-03-22T12:51:07;98442.88;;;15.06;69.43
48652;BME280;34442;52.362;-1.302;2023-03-22T12:53:34;98435.63;;;15.01;66.52
48652;BME280;34442;52.362;-1.302;2023-03-22T12:56:07;98439.63;;;15.09;65.68
48652;BME280;34442;52.362;-1.302;2023-03-22T12:58:32;98448.63;;;14.99;64.32
48652;BME280;34442;52.362;-1.302;2023-03-22T13:00:59;98452.63;;;15.07;61.10
48652;BME280;34442;52.362;-1.302;2023-03-22T13:03:47;98458.91;;;15.02;63.26
48652;BME280;34442;52.362;-1.302;2023-03-22T13:11:39;98427.41;;;14.82;62.97
48652;BME280;34442;52.362;-1.302;2023-03-22T13:14:05;98424.94;;;14.81;62.58
48652;BME280;34442;52.362;-1.302;2023-03-22T13:16:46;98436.38;;;14.78;61.85
48652;BME280;34442;52.362;-1.302;2023-03-22T13:19:28;98422.69;;;14.98;63.51
48652;BME280;34442;52.362;-1.302;2023-03-22T13:27:58;98409.59;;;15.05;63.78
48652;BME280;34442;52.362;-1.302;2023-03-22T13:35:23;98399.25;;;15.12;67.07
48652;BME280;34442;52.362;-1.302;2023-03-22T13:37:49;98392.91;;;15.27;67.72
48652;BME280;34442;52.362;-1.302;2023-03-22T13:42:46;98399.28;;;15.36;67.12
48652;BME280;34442;52.362;-1.302;2023-03-22T13:45:31;98394.38;;;15.38;68.21
48652;BME280;34442;52.362;-1.302;2023-03-22T13:48:05;98393.47;;;15.24;67.75
48652;BME280;34442;52.362;-1.302;2023-03-22T13:50:33;98382.09;;;15.22;68.90
48652;BME280;34442;52.362;-1.302;2023-03-22T13:53:17;98375.06;;;15.21;69.10
48652;BME280;34442;52.362;-1.302;2023-03-22T13:58:30;98383.16;;;15.50;69.04
48652;BME280;34442;52.362;-1.302;2023-03-22T14:01:00;98359.59;;;15.51;68.15